F/V Le Mirador — FPHO — position and weather

sailwx.info

Track history (hours):
 
Tides and Currents Weather Stations Pressure Air Temp Water Temp Dewpoint Dewpoint Depression Visibility Wind Speed Wind Dir Waves Ship Positions

F/V Le Mirador

Last reported at 2014-Oct-30 09:33 UTC. Time now 2014-Oct-30 12:21 UTC.
Position N 46°22' W 002°48'.

Length 19 m; draft 2.8 m.

Type: Fishing. MMSI: 227901000.

Date/timePositionNaut miles runAvg speedWind from/ knotsBaromVisibWave heightAir tempDewpointWater temp
2014-Oct-30 09:33N 46°22' W 002°48'2 1.5
2014-Oct-30 08:31N 46°23' W 002°49'2 0.7
2014-Oct-30 06:21N 46°22' W 002°47'1 0.3
2014-Oct-30 01:33N 46°23' W 002°48'0 0.1
2014-Oct-30 00:33N 46°23' W 002°48'0 0.0
2014-Oct-29 23:29N 46°23' W 002°48'0 0.0
2014-Oct-29 21:11N 46°23' W 002°48'0 0.0
2014-Oct-29 20:13N 46°23' W 002°48'0 0.0
2014-Oct-29 19:10N 46°23' W 002°48'0 0.0
2014-Oct-29 16:27N 46°23' W 002°48'0 0.0
2014-Oct-29 14:06N 46°23' W 002°48'4 6.2
2014-Oct-29 13:31N 46°20' W 002°46'6 5.6
2014-Oct-29 12:32N 46°24' W 002°52'3 2.0
2014-Oct-29 11:07N 46°24' W 002°56'1 1.2
2014-Oct-29 10:30N 46°25' W 002°57'1 1.3
2014-Oct-29 09:31N 46°24' W 002°55'2 1.7
2014-Oct-29 08:33N 46°23' W 002°55'3 1.2
2014-Oct-29 06:25N 46°25' W 002°56'0 0.1
2014-Oct-28 23:20N 46°25' W 002°56'0 0.0
2014-Oct-28 21:05N 46°25' W 002°56'2 0.3
2014-Oct-28 13:18N 46°23' W 002°55'6 3.1
2014-Oct-28 11:33N 46°28' W 002°52'  
2014-Oct-25 16:08N 46°43' W 002°18'5 8.6
2014-Oct-25 15:32N 46°40' W 002°12'9 8.9
2014-Oct-25 14:33N 46°35' W 002°02'9 8.9
2014-Oct-25 13:33N 46°29' W 001°52'3 3.3
2014-Oct-25 12:33N 46°30' W 001°47'3 3.0
2014-Oct-25 11:33N 46°28' W 001°50'9 9.0
2014-Oct-25 10:33N 46°24' W 002°02'9 8.6
2014-Oct-25 09:31N 46°21' W 002°15'22 1.0
2014-Oct-24 12:21N 46°12' W 002°44'9 4.2
2014-Oct-24 10:11N 46°05' W 002°51'4 5.6
2014-Oct-24 09:31N 46°02' W 002°56'  
2014-Oct-21 08:25N 46°41' W 002°16'9 9.3
2014-Oct-21 07:28N 46°33' W 002°23'26 1.2
2014-Oct-20 10:05N 46°11' W 002°43'  
Track history (hours):
 
Tides and Currents Weather Stations Pressure Air Temp Water Temp Dewpoint Dewpoint Depression Visibility Wind Speed Wind Dir Waves Ship Positions

F/V Le Mirador

Last reported at 2014-Oct-30 09:33 UTC. Time now 2014-Oct-30 12:21 UTC.
Position N 46°22' W 002°48'.

Length 19 m; draft 2.8 m.

Type: Fishing. MMSI: 227901000.

Date/timePositionNaut miles runAvg speedWind from/ knotsBaromVisibWave heightAir tempDewpointWater temp
2014-Oct-30 09:33N 46°22' W 002°48'2 1.5
2014-Oct-30 08:31N 46°23' W 002°49'2 0.7
2014-Oct-30 06:21N 46°22' W 002°47'1 0.3
2014-Oct-30 01:33N 46°23' W 002°48'0 0.1
2014-Oct-30 00:33N 46°23' W 002°48'0 0.0
2014-Oct-29 23:29N 46°23' W 002°48'0 0.0
2014-Oct-29 21:11N 46°23' W 002°48'0 0.0
2014-Oct-29 20:13N 46°23' W 002°48'0 0.0
2014-Oct-29 19:10N 46°23' W 002°48'0 0.0
2014-Oct-29 16:27N 46°23' W 002°48'0 0.0
2014-Oct-29 14:06N 46°23' W 002°48'4 6.2
2014-Oct-29 13:31N 46°20' W 002°46'6 5.6
2014-Oct-29 12:32N 46°24' W 002°52'3 2.0
2014-Oct-29 11:07N 46°24' W 002°56'1 1.2
2014-Oct-29 10:30N 46°25' W 002°57'1 1.3
2014-Oct-29 09:31N 46°24' W 002°55'2 1.7
2014-Oct-29 08:33N 46°23' W 002°55'3 1.2
2014-Oct-29 06:25N 46°25' W 002°56'0 0.1
2014-Oct-28 23:20N 46°25' W 002°56'0 0.0
2014-Oct-28 21:05N 46°25' W 002°56'2 0.3
2014-Oct-28 13:18N 46°23' W 002°55'6 3.1
2014-Oct-28 11:33N 46°28' W 002°52'  
2014-Oct-25 16:08N 46°43' W 002°18'5 8.6
2014-Oct-25 15:32N 46°40' W 002°12'9 8.9
2014-Oct-25 14:33N 46°35' W 002°02'9 8.9
2014-Oct-25 13:33N 46°29' W 001°52'3 3.3
2014-Oct-25 12:33N 46°30' W 001°47'3 3.0
2014-Oct-25 11:33N 46°28' W 001°50'9 9.0
2014-Oct-25 10:33N 46°24' W 002°02'9 8.6
2014-Oct-25 09:31N 46°21' W 002°15'22 1.0
2014-Oct-24 12:21N 46°12' W 002°44'9 4.2
2014-Oct-24 10:11N 46°05' W 002°51'4 5.6
2014-Oct-24 09:31N 46°02' W 002°56'  
2014-Oct-21 08:25N 46°41' W 002°16'9 9.3
2014-Oct-21 07:28N 46°33' W 002°23'26 1.2
2014-Oct-20 10:05N 46°11' W 002°43'  

Dump ship's entire track history